Time,TemperatureF,DewpointF,PressureIn,WindDirection,WindDirectionDegrees,WindSpeedMPH,WindSpeedGustMPH,Humidity,HourlyPrecipIn,Conditions,Clouds,dailyrainin,SolarRadiationWatts/m^2,SoftwareType,DateUTC
2013-04-04 00:02:00,43.0,33.0,-100.00,East,94,2.0,4.0,68,0.00,,,0.00,1.000000,,2013-04-04 06:02:00,
2013-04-04 00:12:00,43.0,33.0,-100.00,East,94,2.0,4.0,68,0.00,,,0.00,1.000000,,2013-04-04 06:12:00,
2013-04-04 00:33:00,41.0,31.0,-100.00,ENE,65,2.0,5.0,68,0.00,,,0.00,1.000000,,2013-04-04 06:33:00,
2013-04-04 00:42:00,41.0,31.0,-100.00,ENE,65,2.0,5.0,68,0.00,,,0.00,1.000000,,2013-04-04 06:42:00,
2013-04-04 00:52:00,41.0,31.0,-100.00,ENE,65,2.0,5.0,68,0.00,,,0.00,1.000000,,2013-04-04 06:52:00,
2013-04-04 01:02:00,41.0,31.0,-100.00,ENE,65,2.0,5.0,68,0.00,,,0.00,1.000000,,2013-04-04 07:02:00,
2013-04-04 01:12:00,41.0,31.0,-100.00,ENE,65,2.0,5.0,68,0.00,,,0.00,1.000000,,2013-04-04 07:12:00,
2013-04-04 01:43:00,40.0,32.0,-100.00,NE,53,2.0,5.0,72,0.00,,,0.00,1.000000,,2013-04-04 07:43:00,
2013-04-04 01:52:00,40.0,32.0,-100.00,NE,53,2.0,5.0,72,0.00,,,0.00,1.000000,,2013-04-04 07:52:00,
2013-04-04 02:02:00,40.0,32.0,-100.00,NE,53,2.0,5.0,72,0.00,,,0.00,1.000000,,2013-04-04 08:02:00,
2013-04-04 02:11:00,40.0,32.0,-100.00,NE,53,2.0,5.0,72,0.00,,,0.00,1.000000,,2013-04-04 08:11:00,
2013-04-04 02:43:00,38.0,32.0,-100.00,ENE,71,2.0,5.0,80,0.00,,,0.00,1.000000,,2013-04-04 08:43:00,
2013-04-04 02:52:00,38.0,32.0,-100.00,ENE,71,2.0,5.0,80,0.00,,,0.00,1.000000,,2013-04-04 08:52:00,
2013-04-04 03:02:00,38.0,32.0,-100.00,ENE,71,2.0,5.0,80,0.00,,,0.00,1.000000,,2013-04-04 09:02:00,
2013-04-04 03:12:00,38.0,32.0,-100.00,ENE,71,2.0,5.0,80,0.00,,,0.00,1.000000,,2013-04-04 09:12:00,
2013-04-04 03:34:00,37.0,32.0,-100.00,ENE,57,2.0,5.0,81,0.00,,,0.00,1.000000,,2013-04-04 09:34:00,
2013-04-04 03:43:00,37.0,32.0,-100.00,ENE,57,2.0,5.0,81,0.00,,,0.00,1.000000,,2013-04-04 09:43:00,
2013-04-04 03:53:00,37.0,32.0,-100.00,ENE,57,2.0,5.0,81,0.00,,,0.00,1.000000,,2013-04-04 09:53:00,
2013-04-04 04:03:00,37.0,32.0,-100.00,ENE,57,2.0,5.0,81,0.00,,,0.00,1.000000,,2013-04-04 10:03:00,
2013-04-04 04:12:00,37.0,32.0,-100.00,ENE,57,2.0,5.0,81,0.00,,,0.00,1.000000,,2013-04-04 10:12:00,
2013-04-04 04:43:00,37.0,31.0,-100.00,East,90,3.0,6.0,80,0.00,,,0.00,1.000000,,2013-04-04 10:43:00,
2013-04-04 04:53:00,37.0,31.0,-100.00,East,90,3.0,6.0,80,0.00,,,0.00,1.000000,,2013-04-04 10:53:00,
2013-04-04 05:02:00,37.0,31.0,-100.00,East,90,3.0,6.0,80,0.00,,,0.00,1.000000,,2013-04-04 11:02:00,
2013-04-04 05:12:00,37.0,31.0,-100.00,East,90,3.0,6.0,80,0.00,,,0.00,1.000000,,2013-04-04 11:12:00,
2013-04-04 05:33:00,36.0,31.0,-100.00,East,99,3.0,7.0,82,0.00,,,0.00,1.000000,,2013-04-04 11:33:00,
2013-04-04 05:43:00,36.0,31.0,-100.00,East,99,3.0,7.0,82,0.00,,,0.00,1.000000,,2013-04-04 11:43:00,
2013-04-04 05:53:00,36.0,31.0,-100.00,East,99,3.0,7.0,82,0.00,,,0.00,1.000000,,2013-04-04 11:53:00,
2013-04-04 06:02:00,36.0,31.0,-100.00,East,99,3.0,7.0,82,0.00,,,0.00,1.000000,,2013-04-04 12:02:00,
2013-04-04 06:12:00,36.0,31.0,-100.00,East,99,3.0,7.0,82,0.00,,,0.00,1.000000,,2013-04-04 12:12:00,
2013-04-04 06:33:00,36.0,31.0,-100.00,ESE,103,4.0,9.0,82,0.00,,,0.00,1.000000,,2013-04-04 12:33:00,
2013-04-04 06:43:00,36.0,31.0,-100.00,ESE,103,4.0,9.0,82,0.00,,,0.00,1.000000,,2013-04-04 12:43:00,
2013-04-04 06:52:00,36.0,31.0,-100.00,ESE,103,4.0,9.0,82,0.00,,,0.00,1.000000,,2013-04-04 12:52:00,
2013-04-04 07:02:00,36.0,31.0,-100.00,ESE,103,4.0,9.0,82,0.00,,,0.00,1.000000,,2013-04-04 13:02:00,
2013-04-04 07:12:00,36.0,31.0,-100.00,ESE,103,4.0,9.0,82,0.00,,,0.00,1.000000,,2013-04-04 13:12:00,
2013-04-04 07:43:00,35.0,30.0,-100.00,East,97,4.0,8.0,83,0.00,,,0.00,1.000000,,2013-04-04 13:43:00,
2013-04-04 07:52:00,35.0,30.0,-100.00,East,97,4.0,8.0,83,0.00,,,0.00,1.000000,,2013-04-04 13:52:00,
2013-04-04 08:02:00,35.0,30.0,-100.00,East,97,4.0,8.0,83,0.00,,,0.00,1.000000,,2013-04-04 14:02:00,
2013-04-04 08:12:00,35.0,30.0,-100.00,East,97,4.0,8.0,83,0.00,,,0.00,1.000000,,2013-04-04 14:12:00,
2013-04-04 08:43:00,34.0,30.0,-100.00,ESE,109,3.0,9.0,86,0.00,,,0.00,1.000000,,2013-04-04 14:43:00,
2013-04-04 08:52:00,34.0,30.0,-100.00,ESE,109,3.0,9.0,86,0.00,,,0.00,1.000000,,2013-04-04 14:52:00,
2013-04-04 09:02:00,34.0,30.0,-100.00,ESE,109,3.0,9.0,86,0.00,,,0.00,1.000000,,2013-04-04 15:02:00,
2013-04-04 09:12:00,34.0,30.0,-100.00,ESE,109,3.0,9.0,86,0.00,,,0.00,1.000000,,2013-04-04 15:12:00,
2013-04-04 09:34:00,35.0,30.0,-100.00,ESE,105,4.0,8.0,83,0.00,,,0.00,28.000000,,2013-04-04 15:34:00,
2013-04-04 09:43:00,35.0,30.0,-100.00,ESE,105,4.0,8.0,83,0.00,,,0.00,28.000000,,2013-04-04 15:43:00,
2013-04-04 09:53:00,35.0,30.0,-100.00,ESE,105,4.0,8.0,83,0.00,,,0.00,28.000000,,2013-04-04 15:53:00,
2013-04-04 10:02:00,35.0,30.0,-100.00,ESE,105,4.0,8.0,83,0.00,,,0.00,28.000000,,2013-04-04 16:02:00,
2013-04-04 10:12:00,35.0,30.0,-100.00,ESE,105,4.0,8.0,83,0.00,,,0.00,28.000000,,2013-04-04 16:12:00,
2013-04-04 10:43:00,39.0,30.0,-100.00,NE,48,6.0,10.0,70,0.00,,,0.00,109.000000,,2013-04-04 16:43:00,
2013-04-04 10:53:00,39.0,30.0,-100.00,NE,48,6.0,10.0,70,0.00,,,0.00,109.000000,,2013-04-04 16:53:00,
2013-04-04 11:02:00,39.0,30.0,-100.00,NE,48,6.0,10.0,70,0.00,,,0.00,109.000000,,2013-04-04 17:02:00,
2013-04-04 11:12:00,39.0,30.0,-100.00,NE,48,6.0,10.0,70,0.00,,,0.00,109.000000,,2013-04-04 17:12:00,
2013-04-04 11:43:00,47.0,32.0,-100.00,NE,47,3.0,8.0,56,0.00,,,0.00,190.000000,,2013-04-04 17:43:00,
2013-04-04 11:52:00,47.0,32.0,-100.00,NE,47,3.0,8.0,56,0.00,,,0.00,190.000000,,2013-04-04 17:52:00,
2013-04-04 12:02:00,47.0,32.0,-100.00,NE,47,3.0,8.0,56,0.00,,,0.00,190.000000,,2013-04-04 18:02:00,
2013-04-04 12:12:00,47.0,32.0,-100.00,NE,47,3.0,8.0,56,0.00,,,0.00,190.000000,,2013-04-04 18:12:00,
2013-04-04 12:43:00,55.0,32.0,-100.00,NNW,339,5.0,7.0,42,0.00,,,0.00,551.000000,,2013-04-04 18:43:00,
2013-04-04 12:52:00,55.0,32.0,-100.00,NNW,339,5.0,7.0,42,0.00,,,0.00,551.000000,,2013-04-04 18:52:00,
2013-04-04 13:02:00,55.0,32.0,-100.00,NNW,339,5.0,7.0,42,0.00,,,0.00,551.000000,,2013-04-04 19:02:00,
2013-04-04 13:12:00,55.0,32.0,-100.00,NNW,339,5.0,7.0,42,0.00,,,0.00,551.000000,,2013-04-04 19:12:00,
2013-04-04 13:33:00,62.0,35.0,-100.00,North,357,4.0,6.0,37,0.00,,,0.00,514.000000,,2013-04-04 19:33:00,
2013-04-04 13:43:00,62.0,35.0,-100.00,North,357,4.0,6.0,37,0.00,,,0.00,514.000000,,2013-04-04 19:43:00,
2013-04-04 13:52:00,62.0,35.0,-100.00,North,357,4.0,6.0,37,0.00,,,0.00,514.000000,,2013-04-04 19:52:00,
2013-04-04 14:03:00,62.0,35.0,-100.00,North,357,4.0,6.0,37,0.00,,,0.00,514.000000,,2013-04-04 20:03:00,
2013-04-04 14:12:00,62.0,35.0,-100.00,North,357,4.0,6.0,37,0.00,,,0.00,514.000000,,2013-04-04 20:12:00,
2013-04-04 14:42:00,62.0,35.0,-100.00,NNE,23,4.0,11.0,37,0.00,,,0.00,236.000000,,2013-04-04 20:42:00,
2013-04-04 14:53:00,62.0,35.0,-100.00,NNE,23,4.0,11.0,37,0.00,,,0.00,236.000000,,2013-04-04 20:53:00,
2013-04-04 15:02:00,62.0,35.0,-100.00,NNE,23,4.0,11.0,37,0.00,,,0.00,236.000000,,2013-04-04 21:02:00,
2013-04-04 15:12:00,62.0,35.0,-100.00,NNE,23,4.0,11.0,37,0.00,,,0.00,236.000000,,2013-04-04 21:12:00,
2013-04-04 15:43:00,59.0,39.0,-100.00,NNE,16,3.0,10.0,48,0.00,,,0.00,258.000000,,2013-04-04 21:43:00,
2013-04-04 15:53:00,59.0,39.0,-100.00,NNE,16,3.0,10.0,48,0.00,,,0.00,258.000000,,2013-04-04 21:53:00,
2013-04-04 16:03:00,59.0,39.0,-100.00,NNE,16,3.0,10.0,48,0.00,,,0.00,258.000000,,2013-04-04 22:03:00,
2013-04-04 16:12:00,59.0,39.0,-100.00,NNE,16,3.0,10.0,48,0.00,,,0.00,258.000000,,2013-04-04 22:12:00,
2013-04-04 16:33:00,60.0,37.0,-100.00,North,10,4.0,7.0,42,0.00,,,0.00,233.000000,,2013-04-04 22:33:00,
2013-04-04 16:43:00,60.0,37.0,-100.00,North,10,4.0,7.0,42,0.00,,,0.00,233.000000,,2013-04-04 22:43:00,
2013-04-04 16:53:00,60.0,37.0,-100.00,North,10,4.0,7.0,42,0.00,,,0.00,233.000000,,2013-04-04 22:53:00,
2013-04-04 17:02:00,60.0,37.0,-100.00,North,10,4.0,7.0,42,0.00,,,0.00,233.000000,,2013-04-04 23:02:00,
2013-04-04 17:12:00,60.0,37.0,-100.00,North,10,4.0,7.0,42,0.00,,,0.00,233.000000,,2013-04-04 23:12:00,
2013-04-04 17:32:00,61.0,37.0,-100.00,NW,317,2.0,11.0,41,0.00,,,0.00,204.000000,,2013-04-04 23:32:00,
2013-04-04 17:42:00,61.0,37.0,-100.00,NW,317,2.0,11.0,41,0.00,,,0.00,204.000000,,2013-04-04 23:42:00,
2013-04-04 17:52:00,61.0,37.0,-100.00,NW,317,2.0,11.0,41,0.00,,,0.00,204.000000,,2013-04-04 23:52:00,
2013-04-04 18:02:00,61.0,37.0,-100.00,NW,317,2.0,11.0,41,0.00,,,0.00,204.000000,,2013-04-05 00:02:00,
2013-04-04 18:12:00,61.0,37.0,-100.00,NW,317,2.0,11.0,41,0.00,,,0.00,204.000000,,2013-04-05 00:12:00,
2013-04-04 19:32:00,60.0,35.0,-100.00,NE,37,4.0,10.0,39,-99.99,,,0.00,83.000000,,2013-04-05 01:32:00,
2013-04-04 19:42:00,60.0,35.0,-100.00,NE,37,4.0,10.0,39,-99.99,,,0.00,83.000000,,2013-04-05 01:42:00,
2013-04-04 19:53:00,60.0,35.0,-100.00,NE,37,4.0,10.0,39,-99.99,,,0.00,83.000000,,2013-04-05 01:53:00,
2013-04-04 20:02:00,60.0,35.0,-100.00,NE,37,4.0,10.0,39,-99.99,,,0.00,83.000000,,2013-04-05 02:02:00,
2013-04-04 20:12:00,60.0,35.0,-100.00,NE,37,4.0,10.0,39,-99.99,,,0.00,83.000000,,2013-04-05 02:12:00,
2013-04-04 20:42:00,58.0,34.0,-100.00,East,86,3.0,11.0,41,0.00,,,0.00,43.000000,,2013-04-05 02:42:00,
2013-04-04 20:52:00,58.0,34.0,-100.00,East,86,3.0,11.0,41,0.00,,,0.00,43.000000,,2013-04-05 02:52:00,
2013-04-04 21:02:00,58.0,34.0,-100.00,East,86,3.0,11.0,41,0.00,,,0.00,43.000000,,2013-04-05 03:02:00,
2013-04-04 21:12:00,58.0,34.0,-100.00,East,86,3.0,11.0,41,0.00,,,0.00,43.000000,,2013-04-05 03:12:00,
2013-04-04 21:33:00,54.0,39.0,-100.00,NE,41,5.0,13.0,56,0.00,,,0.00,11.000000,,2013-04-05 03:33:00,
2013-04-04 21:43:00,54.0,39.0,-100.00,NE,41,5.0,13.0,56,0.00,,,0.00,11.000000,,2013-04-05 03:43:00,
2013-04-04 21:53:00,54.0,39.0,-100.00,NE,41,5.0,13.0,56,0.00,,,0.00,11.000000,,2013-04-05 03:53:00,
2013-04-04 22:02:00,54.0,39.0,-100.00,NE,41,5.0,13.0,56,0.00,,,0.00,11.000000,,2013-04-05 04:02:00,
2013-04-04 22:12:00,54.0,39.0,-100.00,NE,41,5.0,13.0,56,0.00,,,0.00,11.000000,,2013-04-05 04:12:00,
2013-04-04 22:42:00,47.0,43.0,-100.00,ESE,116,4.0,11.0,85,0.00,,,0.00,1.000000,,2013-04-05 04:42:00,
2013-04-04 22:52:00,47.0,43.0,-100.00,ESE,116,4.0,11.0,85,0.00,,,0.00,1.000000,,2013-04-05 04:52:00,
2013-04-04 23:02:00,47.0,43.0,-100.00,ESE,116,4.0,11.0,85,0.00,,,0.00,1.000000,,2013-04-05 05:02:00,
2013-04-04 23:12:00,47.0,43.0,-100.00,ESE,116,4.0,11.0,85,0.00,,,0.00,1.000000,,2013-04-05 05:12:00,
2013-04-04 23:42:00,45.0,42.0,-100.00,SSW,213,1.0,5.0,90,0.00,,,0.00,1.000000,,2013-04-05 05:42:00,
2013-04-04 23:52:00,45.0,42.0,-100.00,SSW,213,1.0,5.0,90,0.00,,,0.00,1.000000,,2013-04-05 05:52:00,